Time;durP1;ratioP1;P1;durP2;ratioP2;P2;SDS_P1;SDS_P2;PMS_P1;PMS_P2;Temp;Humidity;BMP_temperature;BMP_pressure;BME280_temperature;BME280_humidity;BME280_pressure;Samples;Min_cycle;Max_cycle;Signal;HPM_P1;HPM_P2
2022/01/06 00:00:11;;;;;;;10.23;1.70;;;2.00;99.90;;;;;;5047420;28;20036;-58
2022/01/06 00:02:38;;;;;;;12.40;2.08;;;2.00;99.90;;;;;;5049045;28;20029;-56
2022/01/06 00:05:04;;;;;;;8.00;2.00;;;2.00;99.90;;;;;;5049241;28;20029;-56
2022/01/06 00:07:31;;;;;;;15.23;2.53;;;2.00;99.90;;;;;;5048444;28;20031;-55
2022/01/06 00:09:57;;;;;;;6.80;1.90;;;1.90;99.90;;;;;;5047534;28;20132;-54
2022/01/06 00:12:29;;;;;;;6.20;1.65;;;1.90;99.90;;;;;;5048676;28;20128;-56
2022/01/06 00:15:07;;;;;;;5.28;1.80;;;1.80;99.90;;;;;;5047901;28;20129;-55
2022/01/06 00:18:09;;;;;;;7.82;1.92;;;1.80;99.90;;;;;;5041561;28;20025;-58
2022/01/06 00:25:57;;;;;;;10.50;2.67;;;1.70;99.90;;;;;;5052666;28;20476;-56
2022/01/06 00:28:23;;;;;;;14.10;2.55;;;1.70;99.90;;;;;;5051531;28;20475;-57
2022/01/06 00:30:49;;;;;;;9.02;2.03;;;1.70;99.90;;;;;;5052528;28;20044;-55
2022/01/06 00:33:15;;;;;;;9.75;1.88;;;1.70;99.90;;;;;;5052379;28;20032;-56
2022/01/06 00:35:40;;;;;;;8.73;2.22;;;1.70;99.90;;;;;;5050648;28;20060;-57
2022/01/06 00:38:07;;;;;;;11.63;3.28;;;1.60;99.90;;;;;;5052317;28;20470;-57
2022/01/06 00:40:36;;;;;;;9.93;2.03;;;1.60;99.90;;;;;;5050322;28;20100;-55
2022/01/06 00:43:04;;;;;;;7.25;1.60;;;1.60;99.90;;;;;;5052634;28;20033;-55
2022/01/06 00:45:31;;;;;;;7.93;2.38;;;1.60;99.90;;;;;;5051597;28;20029;-56
2022/01/06 00:47:57;;;;;;;7.65;2.45;;;1.60;99.90;;;;;;5052526;28;20037;-57
2022/01/06 00:50:23;;;;;;;13.80;2.20;;;1.60;99.90;;;;;;5050683;28;20056;-56
2022/01/06 00:52:49;;;;;;;12.38;2.50;;;1.60;99.90;;;;;;5052981;28;20029;-57
2022/01/06 00:55:16;;;;;;;10.55;1.75;;;1.50;99.90;;;;;;5051646;28;20393;-58
2022/01/06 00:57:42;;;;;;;9.02;1.98;;;1.50;99.90;;;;;;5051049;28;20021;-59
2022/01/06 01:00:09;;;;;;;6.95;2.10;;;1.50;99.90;;;;;;5051306;28;20474;-57
2022/01/06 01:02:35;;;;;;;7.97;2.08;;;1.50;99.90;;;;;;5051566;28;20021;-60
2022/01/06 01:05:01;;;;;;;5.95;2.08;;;1.50;99.90;;;;;;5053051;28;20103;-55
2022/01/06 01:07:26;;;;;;;10.55;2.45;;;1.50;99.90;;;;;;5051623;28;20030;-55
2022/01/06 01:09:52;;;;;;;9.75;2.72;;;1.50;99.90;;;;;;5054900;28;20044;-53
2022/01/06 01:12:18;;;;;;;12.02;2.38;;;1.40;99.90;;;;;;5058856;28;20033;-52
2022/01/06 01:14:53;;;;;;;16.40;2.50;;;1.40;99.90;;;;;;5057288;28;20394;-56
2022/01/06 01:17:18;;;;;;;7.57;2.20;;;1.40;99.90;;;;;;5052347;28;20034;-57
2022/01/06 01:19:44;;;;;;;9.00;1.83;;;1.40;99.90;;;;;;5050705;28;20547;-53
2022/01/06 01:22:10;;;;;;;9.00;2.03;;;1.30;99.90;;;;;;5051144;28;20025;-53
2022/01/06 01:24:35;;;;;;;9.35;2.03;;;1.40;99.90;;;;;;5051633;28;20494;-53
2022/01/06 01:27:01;;;;;;;14.93;2.38;;;1.40;99.90;;;;;;5051752;28;20075;-56
2022/01/06 01:29:30;;;;;;;10.25;2.22;;;1.40;99.90;;;;;;5049891;28;20529;-56
2022/01/06 01:31:57;;;;;;;5.95;1.65;;;1.40;99.90;;;;;;5051082;28;20036;-57
2022/01/06 01:34:25;;;;;;;6.47;1.70;;;1.40;99.90;;;;;;5050268;28;20028;-53
2022/01/06 01:36:54;;;;;;;6.90;2.17;;;1.40;99.90;;;;;;5051268;28;20025;-56
2022/01/06 01:39:21;;;;;;;8.52;1.67;;;1.40;99.90;;;;;;5049953;28;20079;-55
2022/01/06 01:41:47;;;;;;;8.50;1.67;;;1.40;99.90;;;;;;5050257;28;20107;-56
2022/01/06 01:44:18;;;;;;;15.95;2.30;;;1.40;99.90;;;;;;5051198;28;20079;-55
2022/01/06 01:46:52;;;;;;;6.75;1.77;;;1.40;99.90;;;;;;5051342;28;20095;-58
2022/01/06 01:51:50;;;;;;;12.73;2.30;;;1.40;99.90;;;;;;5050693;28;20037;-58
2022/01/06 01:54:17;;;;;;;12.80;2.45;;;1.40;99.90;;;;;;5051209;28;20041;-58
2022/01/06 01:56:43;;;;;;;8.48;2.33;;;1.40;99.90;;;;;;5050344;28;20726;-55
2022/01/06 01:59:08;;;;;;;11.90;2.33;;;1.40;99.90;;;;;;5050671;28;20083;-57
2022/01/06 02:01:34;;;;;;;8.90;2.20;;;1.40;99.90;;;;;;5049365;28;20021;-57
2022/01/06 02:04:00;;;;;;;8.35;2.00;;;1.30;99.90;;;;;;5050742;28;20100;-57
2022/01/06 02:06:25;;;;;;;10.05;2.22;;;1.30;99.90;;;;;;5048578;28;20025;-58
2022/01/06 02:08:51;;;;;;;10.52;2.38;;;1.30;99.90;;;;;;5048456;28;20471;-58
2022/01/06 02:11:18;;;;;;;10.18;2.85;;;1.40;99.90;;;;;;5048429;28;20060;-58
2022/01/06 02:13:48;;;;;;;12.20;2.35;;;1.30;99.90;;;;;;5050001;28;20064;-58
2022/01/06 02:16:18;;;;;;;13.07;1.92;;;1.20;99.90;;;;;;5050213;28;20382;-58
2022/01/06 02:18:43;;;;;;;12.75;2.42;;;1.20;99.90;;;;;;5049628;28;20037;-53
2022/01/06 02:21:09;;;;;;;8.63;2.00;;;1.20;99.90;;;;;;5050258;28;20036;-57
2022/01/06 02:23:34;;;;;;;11.00;1.90;;;1.30;99.90;;;;;;5048912;28;20371;-57
2022/01/06 02:26:00;;;;;;;7.07;1.88;;;1.30;99.90;;;;;;5050612;28;20046;-61
2022/01/06 02:28:26;;;;;;;5.72;1.85;;;1.20;99.90;;;;;;5036268;28;20033;-58
2022/01/06 02:30:54;;;;;;;5.18;1.35;;;1.20;99.90;;;;;;5049545;28;20029;-58
2022/01/06 02:33:20;;;;;;;11.38;2.35;;;1.20;99.90;;;;;;5048136;28;20087;-57
2022/01/06 02:35:48;;;;;;;6.80;1.75;;;1.20;99.90;;;;;;5050026;28;20053;-57
2022/01/06 02:38:14;;;;;;;11.50;1.70;;;1.20;99.90;;;;;;5049040;28;20478;-55
2022/01/06 02:40:39;;;;;;;5.13;1.30;;;1.20;99.90;;;;;;5049351;28;20032;-54
2022/01/06 02:43:07;;;;;;;11.20;1.83;;;1.30;99.90;;;;;;5049117;28;20335;-56
2022/01/06 02:45:33;;;;;;;6.30;1.55;;;1.20;99.90;;;;;;5048477;28;20029;-57
2022/01/06 02:48:08;;;;;;;9.55;1.42;;;1.20;99.90;;;;;;5047947;28;20029;-56
2022/01/06 02:50:37;;;;;;;15.63;1.90;;;1.20;99.90;;;;;;5042464;28;20029;-58
2022/01/06 02:53:03;;;;;;;7.10;1.55;;;1.20;99.90;;;;;;5047634;28;20036;-56
2022/01/06 02:55:28;;;;;;;6.70;1.88;;;1.20;99.90;;;;;;5050269;28;20061;-56
2022/01/06 02:57:54;;;;;;;12.27;1.63;;;1.10;99.90;;;;;;5048930;28;20450;-56
2022/01/06 03:00:20;;;;;;;7.05;1.75;;;1.20;99.90;;;;;;5049706;28;20455;-55
2022/01/06 03:02:46;;;;;;;8.27;2.05;;;1.20;99.90;;;;;;5047557;28;20033;-56
2022/01/06 03:05:14;;;;;;;9.23;1.75;;;1.10;99.90;;;;;;5049588;28;20033;-55
2022/01/06 03:07:40;;;;;;;6.18;1.75;;;1.10;99.90;;;;;;5048992;28;20116;-56
2022/01/06 03:10:10;;;;;;;13.02;2.40;;;1.10;99.90;;;;;;5048943;28;20040;-58
2022/01/06 03:12:39;;;;;;;10.57;2.13;;;1.10;99.90;;;;;;5048737;28;20486;-57
2022/01/06 03:15:14;;;;;;;13.10;2.00;;;1.20;99.90;;;;;;5049806;28;20055;-56
2022/01/06 03:17:41;;;;;;;11.60;1.77;;;1.10;99.90;;;;;;5048396;28;20070;-58
2022/01/06 03:20:09;;;;;;;7.63;1.65;;;1.20;99.90;;;;;;5049106;28;20032;-56
2022/01/06 03:22:36;;;;;;;10.70;1.88;;;1.10;99.90;;;;;;5048785;28;20321;-56
2022/01/06 03:25:02;;;;;;;8.38;2.35;;;1.10;99.90;;;;;;5049638;28;20444;-56
2022/01/06 03:27:30;;;;;;;8.80;2.28;;;1.10;99.90;;;;;;5047715;28;20029;-56
2022/01/06 03:29:55;;;;;;;11.43;1.60;;;1.20;99.90;;;;;;5049112;28;20432;-58
2022/01/06 03:32:21;;;;;;;7.72;1.90;;;1.10;99.90;;;;;;5049023;28;20024;-58
2022/01/06 03:34:47;;;;;;;8.13;1.98;;;1.10;99.90;;;;;;5049547;28;20395;-56
2022/01/06 03:37:14;;;;;;;7.28;1.75;;;1.10;99.90;;;;;;5048603;28;20033;-54
2022/01/06 03:39:42;;;;;;;11.43;2.80;;;1.10;99.90;;;;;;5049278;28;20017;-54
2022/01/06 03:42:09;;;;;;;17.63;1.95;;;1.00;99.90;;;;;;5048647;28;20057;-57
2022/01/06 03:44:34;;;;;;;8.82;2.10;;;1.10;99.90;;;;;;5048671;28;20023;-58
2022/01/06 03:47:01;;;;;;;8.98;1.70;;;1.00;99.90;;;;;;5049091;28;20029;-54
2022/01/06 03:49:26;;;;;;;10.43;2.20;;;1.10;99.90;;;;;;5028572;28;20030;-55
2022/01/06 03:51:52;;;;;;;7.10;1.73;;;1.00;99.90;;;;;;5048683;28;20037;-57
2022/01/06 03:54:18;;;;;;;8.00;2.30;;;1.00;99.90;;;;;;5048837;28;20059;-56
2022/01/06 03:56:43;;;;;;;6.18;1.80;;;1.00;99.90;;;;;;5048484;28;20072;-56
2022/01/06 03:59:09;;;;;;;11.65;1.80;;;1.00;99.90;;;;;;5050031;28;20124;-56
2022/01/06 04:01:34;;;;;;;16.95;2.10;;;0.90;99.90;;;;;;5051353;28;20504;-57
2022/01/06 04:04:01;;;;;;;9.70;1.90;;;1.00;99.90;;;;;;5053063;28;20041;-55
2022/01/06 04:06:26;;;;;;;12.43;2.15;;;1.00;99.90;;;;;;5051794;28;20079;-55
2022/01/06 04:08:52;;;;;;;13.02;1.77;;;1.00;99.90;;;;;;5051732;28;20045;-56
2022/01/06 04:11:18;;;;;;;6.10;1.65;;;0.90;99.90;;;;;;5051257;28;20287;-55
2022/01/06 04:13:44;;;;;;;14.68;2.22;;;0.90;99.90;;;;;;5052632;28;20032;-55
2022/01/06 04:16:13;;;;;;;13.45;2.20;;;0.90;99.90;;;;;;5049396;28;20037;-56
2022/01/06 04:18:39;;;;;;;13.65;2.28;;;0.80;99.90;;;;;;5052710;28;20059;-54
2022/01/06 04:21:06;;;;;;;8.82;1.90;;;0.80;99.90;;;;;;5033624;28;20055;-57
2022/01/06 04:23:35;;;;;;;8.13;2.78;;;0.80;99.90;;;;;;5052864;28;20029;-53
2022/01/06 04:26:01;;;;;;;10.20;1.83;;;0.80;99.90;;;;;;5051855;28;20025;-56
2022/01/06 04:28:26;;;;;;;9.25;1.73;;;0.80;99.90;;;;;;5044177;28;20056;-54
2022/01/06 04:30:52;;;;;;;10.02;1.95;;;0.80;99.90;;;;;;5049492;28;20051;-55
2022/01/06 04:33:18;;;;;;;15.20;2.35;;;0.90;99.90;;;;;;5052340;28;20163;-53
2022/01/06 04:35:44;;;;;;;8.75;2.03;;;0.90;99.90;;;;;;5051375;28;20039;-54
2022/01/06 04:38:10;;;;;;;18.13;2.20;;;0.90;99.90;;;;;;5052014;28;20184;-57
2022/01/06 04:40:36;;;;;;;7.53;2.20;;;0.90;99.90;;;;;;5049485;28;20389;-57
2022/01/06 04:43:01;;;;;;;16.42;2.58;;;0.80;99.90;;;;;;5052183;28;20425;-57
2022/01/06 04:45:27;;;;;;;12.15;2.10;;;0.80;99.90;;;;;;5049198;28;20065;-58
2022/01/06 04:47:53;;;;;;;9.35;1.80;;;0.80;99.90;;;;;;5050746;28;20491;-55
2022/01/06 04:50:19;;;;;;;9.27;2.40;;;0.80;99.90;;;;;;5050293;28;20036;-53
2022/01/06 04:52:44;;;;;;;14.63;2.25;;;0.90;99.90;;;;;;5050567;28;20032;-57
2022/01/06 04:55:10;;;;;;;12.88;2.03;;;0.90;99.90;;;;;;5050551;28;20090;-56
2022/01/06 04:57:36;;;;;;;7.47;2.45;;;0.90;99.90;;;;;;5051944;28;20031;-57
2022/01/06 05:00:04;;;;;;;17.45;1.92;;;0.90;99.90;;;;;;5050261;28;20040;-56
2022/01/06 05:02:29;;;;;;;9.80;2.05;;;0.80;99.90;;;;;;5051646;28;20023;-56
2022/01/06 05:04:55;;;;;;;24.80;2.72;;;0.80;99.90;;;;;;5050407;28;20045;-57
2022/01/06 05:07:21;;;;;;;12.85;2.90;;;0.80;99.90;;;;;;5051700;28;20474;-55
2022/01/06 05:09:46;;;;;;;13.27;2.20;;;0.80;99.90;;;;;;5049547;28;20068;-57
2022/01/06 05:12:12;;;;;;;13.52;2.42;;;0.80;99.90;;;;;;5050606;28;20397;-57
2022/01/06 05:14:39;;;;;;;13.13;3.33;;;0.70;99.90;;;;;;5049107;28;20043;-57
2022/01/06 05:17:05;;;;;;;20.23;2.80;;;0.70;99.90;;;;;;5050224;28;20025;-57
2022/01/06 05:19:31;;;;;;;11.35;2.10;;;0.70;99.90;;;;;;5049048;28;20532;-58
2022/01/06 05:21:58;;;;;;;16.30;2.17;;;0.60;99.90;;;;;;5048464;28;20033;-58
2022/01/06 05:24:24;;;;;;;13.30;2.55;;;0.70;99.90;;;;;;5049925;28;20215;-59
2022/01/06 05:26:50;;;;;;;11.82;2.28;;;0.70;99.90;;;;;;5035598;28;20041;-55
2022/01/06 05:29:16;;;;;;;18.75;2.30;;;0.90;99.90;;;;;;5055391;28;20035;-55
2022/01/06 05:31:42;;;;;;;9.80;2.10;;;0.90;99.90;;;;;;5042769;28;20037;-56
2022/01/06 05:34:07;;;;;;;10.63;2.63;;;0.90;99.90;;;;;;5046026;28;20076;-56
2022/01/06 05:36:34;;;;;;;12.75;2.22;;;0.90;99.90;;;;;;5050814;28;20386;-55
2022/01/06 05:39:00;;;;;;;6.85;1.75;;;0.90;99.90;;;;;;5050679;28;20056;-52
2022/01/06 05:41:26;;;;;;;12.50;2.25;;;0.90;99.90;;;;;;5045456;28;20045;-57
2022/01/06 05:43:52;;;;;;;10.93;2.20;;;0.90;99.90;;;;;;5045613;28;20431;-53
2022/01/06 05:46:18;;;;;;;9.38;1.80;;;0.90;99.90;;;;;;5048196;28;20033;-54
2022/01/06 05:48:45;;;;;;;15.23;2.47;;;0.90;99.90;;;;;;5051611;28;20033;-53
2022/01/06 05:51:10;;;;;;;5.93;2.58;;;1.00;99.90;;;;;;5049711;28;20060;-52
2022/01/06 05:53:36;;;;;;;14.13;2.20;;;1.00;99.90;;;;;;5050236;28;20483;-54
2022/01/06 05:56:02;;;;;;;12.48;3.22;;;1.00;99.90;;;;;;5051184;28;20107;-52
2022/01/06 05:58:27;;;;;;;11.00;2.45;;;1.00;99.90;;;;;;5050269;28;20040;-54
2022/01/06 06:00:53;;;;;;;16.27;2.67;;;1.00;99.90;;;;;;5048679;28;20111;-53
2022/01/06 06:03:19;;;;;;;14.93;2.50;;;1.00;99.90;;;;;;5044529;28;20091;-53
2022/01/06 06:05:44;;;;;;;8.55;2.10;;;1.00;99.90;;;;;;5049451;28;20073;-54
2022/01/06 06:08:10;;;;;;;11.88;2.10;;;0.90;99.90;;;;;;5048010;28;20037;-54
2022/01/06 06:10:36;;;;;;;8.55;2.25;;;0.90;99.90;;;;;;5042835;28;20033;-56
2022/01/06 06:13:02;;;;;;;11.70;2.05;;;0.90;99.90;;;;;;5042000;28;20037;-55
2022/01/06 06:15:33;;;;;;;10.60;2.13;;;0.90;99.90;;;;;;5049467;28;20036;-53
2022/01/06 06:18:03;;;;;;;16.48;2.95;;;0.90;99.90;;;;;;5047297;28;20036;-55
2022/01/06 06:20:28;;;;;;;10.20;2.80;;;0.90;99.90;;;;;;5045208;28;20090;-55
2022/01/06 06:22:54;;;;;;;10.93;2.65;;;0.90;99.90;;;;;;5049808;28;20028;-54
2022/01/06 06:25:20;;;;;;;11.23;3.47;;;1.00;99.90;;;;;;5045835;28;20056;-58
2022/01/06 06:27:45;;;;;;;15.85;3.58;;;1.00;99.90;;;;;;5047051;28;20549;-55
2022/01/06 06:30:11;;;;;;;18.42;3.42;;;1.00;99.90;;;;;;5048279;28;20033;-57
2022/01/06 06:32:37;;;;;;;19.88;2.90;;;1.10;99.90;;;;;;5049497;28;20031;-54
2022/01/06 06:35:04;;;;;;;15.32;3.15;;;1.10;99.90;;;;;;5049529;28;20032;-56
2022/01/06 06:37:30;;;;;;;16.58;3.42;;;1.00;99.90;;;;;;5044224;28;20025;-60
2022/01/06 06:39:57;;;;;;;18.13;3.63;;;0.90;99.90;;;;;;5044825;28;20024;-59
2022/01/06 06:42:23;;;;;;;16.73;3.97;;;0.90;99.90;;;;;;5047823;28;20378;-56
2022/01/06 06:44:49;;;;;;;10.25;3.20;;;0.90;99.90;;;;;;5047562;28;20115;-56
2022/01/06 06:47:14;;;;;;;13.10;3.55;;;0.80;99.90;;;;;;5048517;28;20115;-59
2022/01/06 06:49:40;;;;;;;8.55;3.55;;;0.90;99.90;;;;;;5049207;28;20455;-54
2022/01/06 06:52:07;;;;;;;9.38;2.67;;;0.80;99.90;;;;;;5047926;28;20506;-56
2022/01/06 06:54:33;;;;;;;14.75;3.13;;;0.80;99.90;;;;;;5049243;28;20021;-59
2022/01/06 06:56:59;;;;;;;12.70;3.63;;;0.80;99.90;;;;;;5045971;28;20520;-56
2022/01/06 06:59:24;;;;;;;12.77;3.28;;;0.80;99.90;;;;;;5044574;28;20382;-57
2022/01/06 07:01:50;;;;;;;13.05;2.70;;;0.70;99.90;;;;;;5049213;28;20032;-58
2022/01/06 07:04:16;;;;;;;11.23;2.25;;;0.80;99.90;;;;;;5049117;28;20044;-56
2022/01/06 07:06:41;;;;;;;6.60;2.47;;;0.90;99.90;;;;;;5049327;28;20409;-55
2022/01/06 07:09:07;;;;;;;6.07;2.13;;;0.90;99.90;;;;;;5047983;28;20091;-57
2022/01/06 07:11:33;;;;;;;13.10;3.28;;;0.80;99.90;;;;;;5048045;28;20051;-55
2022/01/06 07:13:58;;;;;;;10.15;2.38;;;0.80;99.90;;;;;;5047559;28;20119;-55
2022/01/06 07:16:24;;;;;;;12.27;2.47;;;0.80;99.90;;;;;;5046403;28;20025;-55
2022/01/06 07:18:50;;;;;;;6.70;2.22;;;0.80;99.90;;;;;;5049247;28;20037;-55
2022/01/06 07:21:15;;;;;;;9.18;2.55;;;0.70;99.90;;;;;;5047624;28;20028;-59
2022/01/06 07:23:41;;;;;;;9.05;2.65;;;0.80;99.90;;;;;;5030918;28;20390;-53
2022/01/06 07:26:07;;;;;;;11.85;2.00;;;0.80;99.90;;;;;;5046968;28;20187;-56
2022/01/06 07:28:32;;;;;;;14.20;2.25;;;0.70;99.90;;;;;;5048831;28;20075;-52
2022/01/06 07:30:58;;;;;;;11.18;3.35;;;0.70;99.90;;;;;;5046418;28;20149;-55
2022/01/06 07:33:24;;;;;;;11.80;2.13;;;0.70;99.90;;;;;;5047510;28;20025;-57
2022/01/06 07:35:50;;;;;;;13.15;2.35;;;0.70;99.90;;;;;;5052158;28;20045;-58
2022/01/06 07:38:16;;;;;;;20.52;2.97;;;0.70;99.90;;;;;;5066312;28;20059;-53
2022/01/06 07:40:42;;;;;;;11.68;2.45;;;0.70;99.90;;;;;;5050731;28;20025;-49
2022/01/06 07:43:08;;;;;;;12.40;1.92;;;0.80;99.90;;;;;;5052918;28;20041;-51
2022/01/06 07:45:33;;;;;;;13.50;2.85;;;1.00;99.90;;;;;;5053796;28;20029;-56
2022/01/06 07:48:02;;;;;;;8.15;2.55;;;0.90;99.90;;;;;;5047111;28;20497;-52
2022/01/06 07:50:34;;;;;;;8.85;2.15;;;0.90;99.90;;;;;;5048912;28;20115;-53
2022/01/06 07:53:00;;;;;;;15.68;2.10;;;0.90;99.90;;;;;;5049373;28;20029;-53
2022/01/06 07:55:26;;;;;;;9.15;2.20;;;0.90;99.90;;;;;;5050688;28;20452;-55
2022/01/06 07:57:54;;;;;;;13.02;2.70;;;0.90;99.90;;;;;;5051953;28;20155;-51
2022/01/06 08:00:20;;;;;;;10.88;2.97;;;0.90;99.90;;;;;;5048932;28;20032;-55
2022/01/06 08:02:46;;;;;;;12.73;2.33;;;0.90;99.90;;;;;;5050440;28;20124;-55
2022/01/06 08:05:15;;;;;;;12.77;2.40;;;0.90;99.90;;;;;;5049231;28;20055;-53
2022/01/06 08:07:40;;;;;;;9.55;3.50;;;0.90;99.90;;;;;;5049085;28;20498;-55
2022/01/06 08:10:07;;;;;;;13.43;2.90;;;0.90;99.90;;;;;;5043555;28;20098;-54
2022/01/06 08:12:32;;;;;;;17.42;3.25;;;0.80;99.90;;;;;;5045061;28;20108;-50
2022/01/06 08:14:58;;;;;;;7.28;2.35;;;0.80;99.90;;;;;;5049699;28;20553;-52
2022/01/06 08:17:24;;;;;;;12.32;2.85;;;0.80;99.90;;;;;;5048526;28;20025;-54
2022/01/06 08:19:51;;;;;;;17.33;2.58;;;0.80;99.90;;;;;;5051370;28;20017;-51
2022/01/06 08:22:18;;;;;;;5.82;2.58;;;0.80;99.90;;;;;;5044448;28;20026;-51
2022/01/06 08:24:43;;;;;;;16.63;2.08;;;0.80;99.90;;;;;;5049047;28;20044;-52
2022/01/06 08:27:09;;;;;;;13.77;3.03;;;0.80;99.90;;;;;;5046538;28;20512;-52
2022/01/06 08:29:36;;;;;;;17.30;3.50;;;0.90;99.90;;;;;;5043386;28;20025;-52
2022/01/06 08:32:02;;;;;;;10.50;2.40;;;0.90;99.90;;;;;;5052146;28;20032;-51
2022/01/06 08:34:28;;;;;;;11.38;2.35;;;0.90;99.90;;;;;;5050508;28;20025;-49
2022/01/06 08:36:54;;;;;;;9.68;2.20;;;0.90;99.90;;;;;;5051937;28;20584;-53
2022/01/06 08:39:20;;;;;;;8.43;2.80;;;0.90;99.90;;;;;;5050380;28;20021;-53
2022/01/06 08:41:47;;;;;;;9.00;2.63;;;1.00;99.90;;;;;;5051440;28;20025;-55
2022/01/06 08:44:12;;;;;;;11.30;1.92;;;1.00;99.90;;;;;;5049520;28;20132;-53
2022/01/06 08:46:38;;;;;;;10.77;2.33;;;1.10;99.90;;;;;;5051740;28;20112;-54
2022/01/06 08:49:06;;;;;;;7.25;2.25;;;1.10;99.90;;;;;;5051337;28;20037;-55
2022/01/06 08:51:32;;;;;;;17.98;2.47;;;1.20;99.90;;;;;;5050539;28;20040;-51
2022/01/06 08:53:58;;;;;;;7.68;2.10;;;1.20;99.90;;;;;;5051717;28;20366;-52
2022/01/06 08:56:23;;;;;;;11.20;2.38;;;1.30;99.90;;;;;;5049169;28;20040;-55
2022/01/06 08:58:49;;;;;;;12.40;2.72;;;1.30;99.90;;;;;;5050305;28;20021;-55
2022/01/06 09:01:15;;;;;;;9.07;2.42;;;1.40;99.90;;;;;;5050967;28;20025;-57
2022/01/06 09:03:40;;;;;;;7.10;2.33;;;1.40;99.90;;;;;;5050247;28;20029;-53
2022/01/06 09:06:06;;;;;;;7.82;2.20;;;1.40;99.90;;;;;;5051873;28;20044;-51
2022/01/06 09:08:32;;;;;;;7.78;2.30;;;1.50;99.90;;;;;;5050177;28;20082;-55
2022/01/06 09:10:57;;;;;;;11.55;2.80;;;1.50;99.90;;;;;;5050636;28;20044;-54
2022/01/06 09:13:23;;;;;;;8.43;2.45;;;1.60;99.90;;;;;;5050027;28;20033;-55
2022/01/06 09:15:48;;;;;;;4.80;2.15;;;1.70;99.90;;;;;;5051005;28;20028;-52
2022/01/06 09:18:14;;;;;;;6.53;2.45;;;1.70;99.90;;;;;;5049698;28;20052;-54
2022/01/06 09:20:40;;;;;;;8.85;2.45;;;1.70;99.90;;;;;;5049054;28;20114;-53
2022/01/06 09:23:06;;;;;;;4.72;2.30;;;1.70;99.90;;;;;;5049900;28;20044;-51
2022/01/06 09:25:32;;;;;;;7.57;2.20;;;1.80;99.90;;;;;;5049400;28;20037;-53
2022/01/06 09:27:57;;;;;;;7.20;2.13;;;1.80;99.90;;;;;;5049755;28;20037;-57
2022/01/06 09:30:25;;;;;;;9.07;2.65;;;1.80;99.90;;;;;;5050199;28;20037;-53
2022/01/06 09:32:53;;;;;;;9.00;2.40;;;1.90;99.90;;;;;;5049876;28;20037;-53
2022/01/06 09:35:20;;;;;;;12.07;2.88;;;2.00;99.90;;;;;;5049862;28;20453;-52
2022/01/06 09:37:45;;;;;;;11.43;3.13;;;2.00;99.90;;;;;;5056153;28;20036;-55
2022/01/06 09:40:11;;;;;;;19.27;2.78;;;2.10;99.90;;;;;;5057889;28;20382;-51
2022/01/06 09:42:40;;;;;;;8.27;3.50;;;2.10;99.90;;;;;;5070546;28;20044;-52
2022/01/06 09:45:06;;;;;;;11.43;3.05;;;2.20;99.90;;;;;;5070967;28;20029;-55
2022/01/06 09:47:33;;;;;;;12.32;2.90;;;2.30;99.90;;;;;;5070275;28;20080;-56
2022/01/06 09:49:59;;;;;;;14.27;3.13;;;2.30;99.90;;;;;;5069816;28;20152;-54
2022/01/06 09:52:25;;;;;;;8.98;2.38;;;2.40;99.90;;;;;;5061973;28;20035;-57
2022/01/06 09:54:51;;;;;;;9.20;2.58;;;2.40;99.90;;;;;;5048605;28;20115;-57
2022/01/06 09:57:16;;;;;;;12.90;3.03;;;2.40;99.90;;;;;;5049752;28;20402;-55
2022/01/06 09:59:44;;;;;;;12.45;2.50;;;2.50;99.90;;;;;;5048090;28;20025;-55
2022/01/06 10:02:16;;;;;;;16.42;2.80;;;2.50;99.90;;;;;;5047702;28;20057;-53
2022/01/06 10:04:43;;;;;;;7.97;2.75;;;2.60;99.90;;;;;;5048381;28;20059;-57
2022/01/06 10:07:09;;;;;;;18.90;3.55;;;2.70;99.90;;;;;;5049598;28;20029;-57
2022/01/06 10:09:37;;;;;;;11.40;4.07;;;2.80;99.90;;;;;;5046261;28;20057;-54
2022/01/06 10:12:08;;;;;;;10.38;3.38;;;2.80;99.90;;;;;;5044243;28;20037;-53
2022/01/06 10:14:41;;;;;;;12.87;2.63;;;2.90;99.90;;;;;;5050105;28;20082;-57
2022/01/06 10:17:06;;;;;;;14.88;3.03;;;3.00;99.90;;;;;;5049716;28;20116;-54
2022/01/06 10:19:35;;;;;;;10.55;2.75;;;3.10;99.90;;;;;;5047060;28;20124;-51
2022/01/06 10:22:01;;;;;;;12.70;3.05;;;3.10;99.90;;;;;;5049719;28;20104;-55
2022/01/06 10:24:28;;;;;;;10.95;2.50;;;3.20;99.90;;;;;;5049577;28;20518;-56
2022/01/06 10:27:06;;;;;;;12.75;2.70;;;3.40;99.90;;;;;;5049973;28;20393;-57
2022/01/06 10:29:34;;;;;;;9.48;2.53;;;3.40;99.90;;;;;;5048186;28;20090;-49
2022/01/06 10:32:07;;;;;;;10.10;2.50;;;3.50;99.90;;;;;;5050072;28;20029;-51
2022/01/06 10:34:36;;;;;;;15.50;4.00;;;3.50;99.90;;;;;;5048794;28;20029;-55
2022/01/06 10:37:03;;;;;;;14.13;3.17;;;3.70;99.90;;;;;;5046337;28;20491;-53
2022/01/06 10:39:42;;;;;;;11.90;2.78;;;3.70;99.90;;;;;;5047726;28;20029;-56
2022/01/06 10:42:08;;;;;;;14.88;3.28;;;3.80;99.90;;;;;;5047101;28;20468;-56
2022/01/06 10:45:05;;;;;;;11.52;3.28;;;3.80;99.90;;;;;;5047233;28;20033;-53
2022/01/06 10:47:38;;;;;;;11.15;2.60;;;3.80;99.90;;;;;;5040237;28;20437;-54
2022/01/06 10:50:36;;;;;;;13.35;3.10;;;3.90;99.90;;;;;;5046144;28;20037;-55
2022/01/06 10:53:10;;;;;;;7.75;2.70;;;4.00;99.90;;;;;;5046231;28;20040;-53
2022/01/06 10:55:41;;;;;;;14.25;3.25;;;4.00;99.90;;;;;;5045509;28;20449;-54
2022/01/06 10:58:17;;;;;;;11.25;2.95;;;4.10;99.90;;;;;;5047867;28;20052;-53
2022/01/06 11:00:46;;;;;;;12.25;2.80;;;4.10;99.90;;;;;;5046739;28;20075;-51
2022/01/06 11:03:13;;;;;;;13.70;3.20;;;4.10;99.90;;;;;;5049171;28;20029;-51
2022/01/06 11:05:53;;;;;;;7.88;2.53;;;4.10;99.90;;;;;;5049356;28;20036;-52
2022/01/06 11:08:23;;;;;;;13.88;3.45;;;4.20;99.90;;;;;;5048703;28;20029;-54
2022/01/06 11:11:02;;;;;;;13.02;2.83;;;4.20;99.90;;;;;;5046543;28;20040;-55
2022/01/06 11:13:32;;;;;;;12.32;2.67;;;4.20;99.90;;;;;;5044945;28;20067;-54
2022/01/06 11:15:58;;;;;;;9.73;2.85;;;4.20;99.90;;;;;;5046080;28;20037;-52
2022/01/06 11:18:24;;;;;;;9.02;2.20;;;4.20;99.90;;;;;;5049311;28;20128;-53
2022/01/06 11:20:51;;;;;;;15.63;2.90;;;4.20;99.90;;;;;;5048886;28;20079;-50
2022/01/06 11:23:24;;;;;;;12.90;3.22;;;4.30;99.90;;;;;;5049307;28;20029;-50
2022/01/06 11:26:04;;;;;;;10.75;3.28;;;4.30;99.90;;;;;;5047546;28;20111;-53
2022/01/06 11:28:31;;;;;;;11.18;2.88;;;4.30;99.90;;;;;;5044692;28;20351;-53
2022/01/06 11:30:57;;;;;;;8.60;3.00;;;4.40;99.90;;;;;;5047459;28;20033;-57
2022/01/06 11:33:22;;;;;;;9.82;2.35;;;4.50;99.90;;;;;;5049699;28;20429;-57
2022/01/06 11:35:56;;;;;;;15.85;3.38;;;4.50;99.90;;;;;;5048329;28;20476;-55
2022/01/06 11:38:26;;;;;;;13.60;2.53;;;4.50;99.90;;;;;;5048186;28;20048;-57
2022/01/06 11:41:09;;;;;;;11.77;3.03;;;4.60;99.90;;;;;;5035833;28;20109;-54
2022/01/06 11:43:39;;;;;;;9.32;2.60;;;4.60;99.90;;;;;;5046714;28;20112;-59
2022/01/06 11:46:05;;;;;;;12.77;3.10;;;4.70;99.90;;;;;;5047670;28;20029;-53
2022/01/06 11:48:30;;;;;;;9.63;2.63;;;4.70;99.90;;;;;;5047960;28;20036;-54
2022/01/06 11:50:56;;;;;;;12.10;2.67;;;4.80;99.90;;;;;;5047135;28;20357;-53
2022/01/06 11:53:33;;;;;;;8.50;2.53;;;4.80;99.90;;;;;;5047010;28;20112;-50
2022/01/06 11:55:59;;;;;;;12.48;3.60;;;4.80;99.90;;;;;;5046826;28;20048;-50
2022/01/06 11:58:26;;;;;;;12.05;2.90;;;4.90;99.90;;;;;;5047449;28;20025;-51
2022/01/06 12:01:00;;;;;;;19.48;2.50;;;4.90;99.90;;;;;;5047737;28;20035;-54
2022/01/06 12:03:40;;;;;;;13.07;2.30;;;5.00;99.90;;;;;;5047620;28;20087;-52
2022/01/06 12:06:07;;;;;;;10.73;2.58;;;5.00;99.90;;;;;;5048343;28;20040;-51
2022/01/06 12:08:43;;;;;;;6.38;2.50;;;5.10;99.90;;;;;;5046237;28;20044;-53
2022/01/06 12:11:26;;;;;;;12.45;2.53;;;5.20;99.90;;;;;;5046354;28;20048;-53
2022/01/06 12:13:54;;;;;;;8.93;2.55;;;5.20;99.90;;;;;;5047596;28;20045;-53
2022/01/06 12:16:34;;;;;;;11.68;3.05;;;5.20;99.90;;;;;;5047587;28;20123;-50
2022/01/06 12:19:23;;;;;;;12.13;2.55;;;5.10;99.90;;;;;;5048647;28;20060;-52
2022/01/06 12:21:49;;;;;;;11.23;3.40;;;5.10;99.90;;;;;;5047709;28;20114;-51
2022/01/06 12:24:15;;;;;;;5.57;2.05;;;5.00;99.90;;;;;;5050613;28;20040;-52
2022/01/06 12:26:42;;;;;;;18.17;3.33;;;5.10;99.90;;;;;;5056109;28;20021;-48
2022/01/06 12:29:15;;;;;;;11.02;3.20;;;5.10;99.90;;;;;;5054746;28;20036;-53
2022/01/06 12:31:42;;;;;;;9.98;2.10;;;5.10;99.90;;;;;;5055217;28;20029;-50
2022/01/06 12:34:10;;;;;;;12.32;2.60;;;5.10;99.90;;;;;;5053860;28;20033;-51
2022/01/06 12:36:37;;;;;;;10.52;2.50;;;5.10;99.90;;;;;;5040867;28;20466;-49
2022/01/06 12:39:19;;;;;;;13.50;2.58;;;5.10;99.90;;;;;;5045479;28;20482;-54
2022/01/06 12:41:46;;;;;;;8.48;1.67;;;5.00;99.90;;;;;;5049593;28;20044;-51
2022/01/06 12:44:21;;;;;;;9.48;2.10;;;5.10;99.90;;;;;;5052064;28;20040;-51
2022/01/06 12:46:47;;;;;;;11.40;2.33;;;5.10;99.90;;;;;;5050118;28;20029;-50
2022/01/06 12:49:14;;;;;;;9.07;2.03;;;5.20;99.90;;;;;;5035193;28;20100;-53
2022/01/06 12:51:43;;;;;;;6.72;1.90;;;5.10;99.90;;;;;;5037571;28;20106;-51
2022/01/06 12:54:22;;;;;;;12.02;2.25;;;5.10;99.90;;;;;;5046688;28;20056;-58
2022/01/06 12:56:55;;;;;;;7.32;1.85;;;5.10;99.90;;;;;;5049571;28;20029;-54
2022/01/06 12:59:34;;;;;;;9.73;3.33;;;4.90;99.90;;;;;;5047763;28;20505;-54